createdAt,value
2023-02-15T00:01:55.323Z,-1.8
2023-02-15T00:03:50.377Z,-1.8
2023-02-15T00:05:55.047Z,-2
2023-02-15T00:07:53.005Z,-1.9
2023-02-15T00:09:56.970Z,-1.7
2023-02-15T00:11:50.372Z,-2
2023-02-15T00:13:56.452Z,-2
2023-02-15T00:15:50.371Z,-1.9
2023-02-15T00:17:50.361Z,-1.8
2023-02-15T00:19:50.366Z,-2
2023-02-15T00:21:52.546Z,-1.9
2023-02-15T00:23:50.549Z,-1.8
2023-02-15T00:25:50.373Z,-1.9
2023-02-15T00:27:55.145Z,-1.9
2023-02-15T00:29:50.468Z,-1.9
2023-02-15T00:31:50.425Z,-1.8
2023-02-15T00:33:50.375Z,-1.9
2023-02-15T00:35:50.641Z,-1.8
2023-02-15T00:37:56.361Z,-1.6
2023-02-15T00:39:50.361Z,-1.9
2023-02-15T00:41:50.353Z,-1.8
2023-02-15T00:43:50.807Z,-1.8
2023-02-15T00:45:54.130Z,-1.8
2023-02-15T00:47:51.904Z,-2
2023-02-15T00:49:50.410Z,-1.8
2023-02-15T00:51:50.358Z,-1.9
2023-02-15T00:55:50.436Z,-1.7
2023-02-15T00:57:50.480Z,-1.8
2023-02-15T00:59:56.712Z,-2
2023-02-15T01:01:50.354Z,-2.1
2023-02-15T01:03:50.475Z,-2
2023-02-15T01:05:50.357Z,-2.2
2023-02-15T01:07:56.837Z,-2.3
2023-02-15T01:09:56.721Z,-2
2023-02-15T01:11:50.368Z,-2
2023-02-15T01:13:50.455Z,-1.9
2023-02-15T01:15:50.375Z,-2
2023-02-15T01:17:50.356Z,-2.1
2023-02-15T01:19:56.414Z,-2.2
2023-02-15T01:21:50.371Z,-2.3
2023-02-15T01:23:55.544Z,-2.1
2023-02-15T01:25:56.345Z,-2.1
2023-02-15T01:27:50.378Z,-2
2023-02-15T01:29:50.426Z,-2.2
2023-02-15T01:31:55.316Z,-2.1
2023-02-15T01:33:50.396Z,-2.2
2023-02-15T01:35:50.387Z,-2.3
2023-02-15T01:37:55.174Z,-2.4
2023-02-15T01:39:50.348Z,-2.2
2023-02-15T01:41:50.375Z,-2.3
2023-02-15T01:43:50.473Z,-2.3
2023-02-15T01:45:50.506Z,-2.3
2023-02-15T01:47:56.183Z,-2.1
2023-02-15T01:49:54.031Z,-2
2023-02-15T01:51:54.354Z,-2.2
2023-02-15T01:55:56.225Z,-2.1
2023-02-15T01:57:50.397Z,-2.1
2023-02-15T01:59:56.492Z,-2.2
2023-02-15T02:01:50.433Z,-2.2
2023-02-15T02:03:50.417Z,-2.3
2023-02-15T02:05:55.881Z,-2.1
2023-02-15T02:07:50.432Z,-2.3
2023-02-15T02:09:50.403Z,-2.3
2023-02-15T02:11:50.708Z,-2.3
2023-02-15T02:13:50.426Z,-2.1
2023-02-15T02:15:53.809Z,-2.3
2023-02-15T02:17:50.402Z,-2.3
2023-02-15T02:19:50.446Z,-2.4
2023-02-15T02:21:50.428Z,-2.6
2023-02-15T02:23:57.480Z,-2.3
2023-02-15T02:25:56.912Z,-2.2
2023-02-15T02:27:56.498Z,-2.2
2023-02-15T02:29:50.406Z,-2.3
2023-02-15T02:31:56.905Z,-2.2
2023-02-15T02:33:50.856Z,-2.3
2023-02-15T02:35:50.466Z,-2.3
2023-02-15T02:37:50.438Z,-2.2
2023-02-15T02:39:54.656Z,-2
2023-02-15T02:41:50.396Z,-2.2
2023-02-15T02:43:56.510Z,-2.1
2023-02-15T02:45:50.884Z,-2
2023-02-15T02:47:55.777Z,-2
2023-02-15T02:49:50.402Z,-2.1
2023-02-15T02:51:50.425Z,-2.4
2023-02-15T02:53:50.489Z,-2.2
2023-02-15T02:55:54.493Z,-2.1
2023-02-15T02:57:50.925Z,-2.1
2023-02-15T02:59:54.600Z,-2
2023-02-15T03:01:50.438Z,-2.3
2023-02-15T03:03:50.445Z,-2.3
2023-02-15T03:05:50.838Z,-2.1
2023-02-15T03:07:50.464Z,-2
2023-02-15T03:09:50.535Z,-2.2
2023-02-15T03:11:56.122Z,-2.4
2023-02-15T03:13:54.309Z,-2.3
2023-02-15T03:15:56.421Z,-2.2
2023-02-15T03:17:55.368Z,-2.2
2023-02-15T03:19:50.412Z,-2.1
2023-02-15T03:21:50.594Z,-2.2
2023-02-15T03:23:56.134Z,-2.2
2023-02-15T03:25:50.416Z,-2.2
2023-02-15T03:27:56.095Z,-2.3
2023-02-15T03:29:50.464Z,-2.5
2023-02-15T03:31:50.595Z,-2.3
2023-02-15T03:33:50.557Z,-2.5
2023-02-15T03:35:50.920Z,-2.4
2023-02-15T03:37:53.809Z,-2.4
2023-02-15T03:39:50.422Z,-2.3
2023-02-15T03:41:50.454Z,-2.6
2023-02-15T03:43:50.448Z,-2.2
2023-02-15T03:45:52.790Z,-2.5
2023-02-15T03:47:50.823Z,-2.3
2023-02-15T03:49:53.058Z,-2.3
2023-02-15T03:51:56.198Z,-2.5
2023-02-15T03:53:50.450Z,-2.4
2023-02-15T03:55:50.436Z,-2.5
2023-02-15T03:57:56.005Z,-2.4
2023-02-15T03:59:50.435Z,-2.4
2023-02-15T04:01:50.481Z,-2.1
2023-02-15T04:03:50.517Z,-2.2
2023-02-15T04:05:56.218Z,-2.3
2023-02-15T04:07:50.513Z,-2.6
2023-02-15T04:09:52.923Z,-2.6
2023-02-15T04:11:50.465Z,-2.6
2023-02-15T04:13:50.475Z,-2.5
2023-02-15T04:15:50.519Z,-2.3
2023-02-15T04:17:50.458Z,-2.2
2023-02-15T04:19:50.468Z,-2.2
2023-02-15T04:21:50.552Z,-2.2
2023-02-15T04:23:57.344Z,-2.1
2023-02-15T04:25:55.824Z,-2.2
2023-02-15T04:27:55.725Z,-2.3
2023-02-15T04:29:54.196Z,-2.6
2023-02-15T04:31:54.458Z,-2.3
2023-02-15T04:33:56.577Z,-2.3
2023-02-15T04:35:53.125Z,-2.3
2023-02-15T04:37:50.540Z,-2.6
2023-02-15T04:39:54.743Z,-2.4
2023-02-15T04:41:57.333Z,-2.5
2023-02-15T04:43:57.674Z,-2.5
2023-02-15T04:47:54.934Z,-2.5
2023-02-15T04:49:50.491Z,-2.7
2023-02-15T04:51:50.449Z,-2.5
2023-02-15T04:53:50.496Z,-2.6
2023-02-15T04:55:56.460Z,-2.5
2023-02-15T04:57:57.934Z,-2.5
2023-02-15T04:59:50.444Z,-2.8
2023-02-15T05:01:52.639Z,-2.5
2023-02-15T05:03:56.112Z,-2.5
2023-02-15T05:05:50.467Z,-2.5
2023-02-15T05:07:50.458Z,-2.5
2023-02-15T05:09:50.898Z,-2.4
2023-02-15T05:11:50.439Z,-2.6
2023-02-15T05:13:51.899Z,-2.7
2023-02-15T05:15:50.512Z,-2.7
2023-02-15T05:17:50.525Z,-2.8
2023-02-15T05:19:53.798Z,-2.4
2023-02-15T05:21:52.659Z,-2.6
2023-02-15T05:23:50.620Z,-2.6
2023-02-15T05:25:50.930Z,-2.7
2023-02-15T05:27:50.475Z,-2.6
2023-02-15T05:29:50.541Z,-2.6
2023-02-15T05:31:50.597Z,-2.6
2023-02-15T05:33:55.641Z,-3.1
2023-02-15T05:35:50.476Z,-2.7
2023-02-15T05:37:51.193Z,-2.5
2023-02-15T05:39:55.770Z,-2.6
2023-02-15T05:43:57.730Z,-2.8
2023-02-15T05:45:54.125Z,-2.5
2023-02-15T05:48:00.501Z,-2.4
2023-02-15T05:49:56.829Z,-2.8
2023-02-15T05:51:58.416Z,-2.8
2023-02-15T05:53:54.090Z,-2.8
2023-02-15T05:57:54.123Z,-2.5
2023-02-15T05:59:57.782Z,-2.7
2023-02-15T06:01:59.071Z,-2.8
2023-02-15T06:03:55.036Z,-2.6
2023-02-15T06:05:55.878Z,-2.4
2023-02-15T06:07:57.730Z,-2.5
2023-02-15T06:11:57.858Z,-2.8
2023-02-15T06:13:54.153Z,-2.8
2023-02-15T06:15:58.713Z,-3
2023-02-15T06:17:57.239Z,-2.8
2023-02-15T06:19:57.707Z,-2.6
2023-02-15T06:22:00.552Z,-2.5
2023-02-15T06:23:57.881Z,-2.3
2023-02-15T06:25:54.448Z,-2.7
2023-02-15T06:27:57.716Z,-2.5
2023-02-15T06:29:56.358Z,-2.7
2023-02-15T06:31:58.558Z,-2.6
2023-02-15T06:33:54.163Z,-2.5
2023-02-15T06:36:01.005Z,-2.6
2023-02-15T06:38:00.516Z,-2.4
2023-02-15T06:40:01.479Z,-2.7
2023-02-15T06:41:54.202Z,-2.4
2023-02-15T06:43:57.699Z,-2.6
2023-02-15T06:45:55.810Z,-2.6
2023-02-15T06:47:55.638Z,-2.6
2023-02-15T06:49:54.039Z,-2.8
2023-02-15T06:51:57.839Z,-2.7
2023-02-15T06:54:00.682Z,-2.3
2023-02-15T06:56:00.751Z,-2.3
2023-02-15T06:57:59.660Z,-2.6
2023-02-15T06:59:54.223Z,-2.2
2023-02-15T07:01:58.244Z,-2.6
2023-02-15T07:03:54.225Z,-2.5
2023-02-15T07:05:58.688Z,-2.2
2023-02-15T07:07:56.277Z,-2
2023-02-15T07:09:54.025Z,-2.4
2023-02-15T07:11:57.238Z,-2.2
2023-02-15T07:13:59.989Z,-2.2
2023-02-15T07:15:55.335Z,-2.2
2023-02-15T07:17:54.174Z,-2.2
2023-02-15T07:19:58.378Z,-2.2
2023-02-15T07:21:54.197Z,-2.2
2023-02-15T07:23:56.765Z,-2.3
2023-02-15T07:26:00.093Z,-2.2
2023-02-15T07:27:54.214Z,-2.8
2023-02-15T07:29:59.019Z,-2.7
2023-02-15T07:31:56.979Z,-2.3
2023-02-15T07:33:56.501Z,-2.1
2023-02-15T07:35:58.148Z,-2.2
2023-02-15T07:37:59.894Z,-2.4
2023-02-15T07:39:59.096Z,-2.1
2023-02-15T07:41:55.500Z,-2.3
2023-02-15T07:43:59.038Z,-2.2
2023-02-15T07:45:58.598Z,-1.8
2023-02-15T07:47:59.832Z,-1.8
2023-02-15T07:49:54.160Z,-1.9
2023-02-15T07:51:54.244Z,-1.6
2023-02-15T07:53:54.168Z,-1.8
2023-02-15T07:55:59.528Z,-2.4
2023-02-15T07:57:54.170Z,-2
2023-02-15T07:59:59.289Z,-1.9
2023-02-15T08:01:57.552Z,-2.1
2023-02-15T08:03:56.378Z,-2
2023-02-15T08:05:58.058Z,-1.7
2023-02-15T08:07:54.179Z,-1.7
2023-02-15T08:09:54.175Z,-1.8
2023-02-15T08:12:01.151Z,-2
2023-02-15T08:13:54.506Z,-2.1
2023-02-15T08:15:54.200Z,-2.2
2023-02-15T08:17:56.580Z,-2.2
2023-02-15T08:19:55.680Z,-2.1
2023-02-15T08:21:57.590Z,-1.8
2023-02-15T08:23:54.226Z,-1.8
2023-02-15T08:25:59.606Z,-1.9
2023-02-15T08:27:54.199Z,-1.9
2023-02-15T08:29:54.404Z,-1.7
2023-02-15T08:31:57.452Z,-2.2
2023-02-15T08:33:54.201Z,-1.9
2023-02-15T08:35:59.496Z,-1.5
2023-02-15T08:38:00.399Z,-1.3
2023-02-15T08:40:00.395Z,-1.4
2023-02-15T08:41:54.175Z,-1.7
2023-02-15T08:43:57.246Z,-1.7
2023-02-15T08:45:59.620Z,-2
2023-02-15T08:47:59.509Z,-1.9
2023-02-15T08:49:59.033Z,-1.5
2023-02-15T08:51:58.336Z,-1.4
2023-02-15T08:53:54.256Z,-1.6
2023-02-15T08:55:59.876Z,-1.3
2023-02-15T08:57:55.770Z,-1.4
2023-02-15T08:59:59.840Z,-1.4
2023-02-15T09:01:54.247Z,-1
2023-02-15T09:04:00.535Z,-1.1
2023-02-15T09:05:54.397Z,-0.9
2023-02-15T09:07:54.204Z,-1.6
2023-02-15T09:09:54.187Z,-1.9
2023-02-15T09:11:59.160Z,-1.9
2023-02-15T09:13:54.218Z,-1.3
2023-02-15T09:15:59.228Z,-1.4
2023-02-15T09:17:59.805Z,-1.7
2023-02-15T09:19:58.969Z,-1.4
2023-02-15T09:21:54.177Z,-1.3
2023-02-15T09:23:58.227Z,-1.2
2023-02-15T09:25:56.669Z,-0.9
2023-02-15T09:27:54.241Z,-0.7
2023-02-15T09:29:54.340Z,-1.2
2023-02-15T09:32:00.880Z,-1.3
2023-02-15T09:34:28.009Z,-1.5
2023-02-15T09:36:28.995Z,-0.9
2023-02-15T09:38:23.954Z,-1.5
2023-02-15T09:40:30.876Z,-1.4
2023-02-15T09:42:26.251Z,-1.4
2023-02-15T09:44:30.990Z,-1.2
2023-02-15T09:46:25.847Z,-1.1
2023-02-15T09:48:30.375Z,-1
2023-02-15T09:50:27.045Z,-1.1
2023-02-15T09:52:24.416Z,-0.9
2023-02-15T09:54:24.073Z,-1.3
2023-02-15T09:56:26.812Z,-1.2
2023-02-15T09:58:24.067Z,-1
2023-02-15T10:00:29.444Z,-0.8
2023-02-15T10:02:30.192Z,-0.7
2023-02-15T10:04:26.963Z,-0.4
2023-02-15T10:06:27.937Z,0
2023-02-15T10:08:25.256Z,-0.4
2023-02-15T10:10:24.127Z,-0.6
2023-02-15T10:12:26.784Z,-0.7
2023-02-15T10:14:25.796Z,-0.2
2023-02-15T10:16:29.547Z,0.2
2023-02-15T10:18:24.093Z,0.2
2023-02-15T10:20:24.473Z,0.4
2023-02-15T10:22:27.540Z,0.6
2023-02-15T10:24:27.667Z,-0.3
2023-02-15T10:26:24.061Z,-0.4
2023-02-15T10:28:27.708Z,-0.2
2023-02-15T10:30:32.163Z,-0.4
2023-02-15T10:32:26.270Z,0.3
2023-02-15T10:34:25.957Z,0.5
2023-02-15T10:36:26.450Z,0
2023-02-15T10:38:25.762Z,0.1
2023-02-15T10:40:30.193Z,0.2
2023-02-15T10:42:23.998Z,0.7
2023-02-15T10:44:27.699Z,0.7
2023-02-15T10:46:24.178Z,0.2
2023-02-15T10:48:23.954Z,0.8
2023-02-15T10:50:24.105Z,0.4
2023-02-15T10:52:28.959Z,0.8
2023-02-15T10:54:23.966Z,0.7
2023-02-15T10:56:26.618Z,1
2023-02-15T10:58:25.631Z,0.2
2023-02-15T11:00:24.079Z,-0.2
2023-02-15T11:02:24.077Z,0.1
2023-02-15T11:04:26.109Z,0.7
2023-02-15T11:06:24.091Z,0.2
2023-02-15T11:08:25.270Z,0.9
2023-02-15T11:10:24.085Z,0.5
2023-02-15T11:12:24.011Z,0.5
2023-02-15T11:14:23.972Z,0.7
2023-02-15T11:16:24.140Z,0.6
2023-02-15T11:18:24.115Z,0.6
2023-02-15T11:20:28.123Z,0.5
2023-02-15T11:22:25.263Z,0.9
2023-02-15T11:24:28.101Z,0.5
2023-02-15T11:26:25.617Z,0.4
2023-02-15T11:28:23.967Z,0.8
2023-02-15T11:30:24.043Z,1.1
2023-02-15T11:32:24.084Z,1.1
2023-02-15T11:34:23.955Z,1.7
2023-02-15T11:36:23.985Z,1.7
2023-02-15T11:38:27.320Z,1.9
2023-02-15T11:40:27.670Z,2
2023-02-15T11:42:24.103Z,2
2023-02-15T11:44:27.166Z,1.8
2023-02-15T11:46:25.941Z,1.7
2023-02-15T11:48:26.809Z,2.2
2023-02-15T11:50:30.180Z,1.7
2023-02-15T11:52:24.362Z,2
2023-02-15T11:54:28.546Z,2.3
2023-02-15T11:56:27.758Z,2.3
2023-02-15T11:58:29.349Z,2.4
2023-02-15T12:00:25.865Z,2.3
2023-02-15T12:02:25.816Z,2.3
2023-02-15T12:04:27.654Z,2.3
2023-02-15T12:06:24.105Z,2.6
2023-02-15T12:08:28.408Z,2.7
2023-02-15T12:10:28.558Z,2.9
2023-02-15T12:12:26.211Z,3.1
2023-02-15T12:14:25.808Z,2.2
2023-02-15T12:16:24.129Z,3.1
2023-02-15T12:18:24.212Z,2.7
2023-02-15T12:20:24.089Z,3.2
2023-02-15T12:22:27.658Z,3.6
2023-02-15T12:24:29.485Z,2.8
2023-02-15T12:26:27.629Z,3.6
2023-02-15T12:28:30.924Z,3.3
2023-02-15T12:30:28.448Z,3.2
2023-02-15T12:32:28.073Z,3.7
2023-02-15T12:34:23.993Z,3.6
2023-02-15T12:36:27.355Z,3.1
2023-02-15T12:38:24.452Z,3.2
2023-02-15T12:40:28.810Z,3.2
2023-02-15T12:42:24.125Z,3.8
2023-02-15T12:44:25.810Z,3.7
2023-02-15T12:46:24.105Z,3.7
2023-02-15T12:48:29.711Z,3.7
2023-02-15T12:50:23.992Z,3.9
2023-02-15T12:52:28.548Z,3.8
2023-02-15T12:56:27.775Z,3.9
2023-02-15T12:58:30.040Z,3.9
2023-02-15T13:00:27.266Z,4
2023-02-15T13:02:34.188Z,4.1
2023-02-15T13:04:25.653Z,3.9
2023-02-15T13:06:24.062Z,4.1
2023-02-15T13:08:28.871Z,4.2
2023-02-15T13:10:24.348Z,4.3
2023-02-15T13:12:27.828Z,4.3
2023-02-15T13:14:27.693Z,4.4
2023-02-15T13:16:28.670Z,4.4
2023-02-15T13:18:24.013Z,4.5
2023-02-15T13:20:29.446Z,4.5
2023-02-15T13:22:32.420Z,4.5
2023-02-15T13:24:26.362Z,4.5
2023-02-15T13:26:27.619Z,4.5
2023-02-15T13:28:24.043Z,4.4
2023-02-15T13:30:30.436Z,4.4
2023-02-15T13:32:27.819Z,4.5
2023-02-15T13:34:27.295Z,4.6
2023-02-15T13:36:24.141Z,4.6
2023-02-15T13:38:24.134Z,4.5
2023-02-15T13:40:24.185Z,4.4
2023-02-15T13:42:24.077Z,4.4
2023-02-15T13:44:26.262Z,4.4
2023-02-15T13:46:30.532Z,4.4
2023-02-15T13:48:29.464Z,4.4
2023-02-15T13:52:24.197Z,4.4
2023-02-15T13:54:24.404Z,4.4
2023-02-15T13:56:24.201Z,4.4
2023-02-15T13:58:27.501Z,4.4
2023-02-15T14:00:28.563Z,4.4
2023-02-15T14:02:24.792Z,4.5
2023-02-15T14:04:24.529Z,4.5
2023-02-15T14:06:26.627Z,4.5
2023-02-15T14:08:25.429Z,4.6
2023-02-15T14:10:24.187Z,4.6
2023-02-15T14:12:25.210Z,4.6
2023-02-15T14:14:24.168Z,4.6
2023-02-15T14:16:28.545Z,4.6
2023-02-15T14:18:24.182Z,4.7
2023-02-15T14:20:24.125Z,4.6
2023-02-15T14:22:24.509Z,4.6
2023-02-15T14:24:24.208Z,4.6
2023-02-15T14:26:24.155Z,4.6
2023-02-15T14:28:24.194Z,4.6
2023-02-15T14:30:28.499Z,4.6
2023-02-15T14:32:24.167Z,4.6
2023-02-15T14:34:24.166Z,4.6
2023-02-15T14:36:24.079Z,4.7
2023-02-15T14:38:29.350Z,4.6
2023-02-15T14:40:26.341Z,4.6
2023-02-15T14:42:29.979Z,4.6
2023-02-15T14:44:24.048Z,4.6
2023-02-15T14:46:31.065Z,4.6
2023-02-15T14:48:24.199Z,4.6
2023-02-15T14:50:24.168Z,4.6
2023-02-15T14:52:24.171Z,4.6
2023-02-15T14:54:24.222Z,4.6
2023-02-15T14:56:28.578Z,4.6
2023-02-15T14:58:24.169Z,4.5
2023-02-15T15:02:30.561Z,4.5
2023-02-15T15:06:24.199Z,4.4
2023-02-15T15:08:24.187Z,4.4
2023-02-15T15:10:24.180Z,4.5
2023-02-15T15:12:24.181Z,4.4
2023-02-15T15:14:24.197Z,4.4
2023-02-15T15:16:24.279Z,4.3
2023-02-15T15:18:27.806Z,4.3
2023-02-15T15:20:26.956Z,4.3
2023-02-15T15:22:24.205Z,4.3
2023-02-15T15:24:28.011Z,4.3
2023-02-15T15:26:29.308Z,4.3
2023-02-15T15:28:25.856Z,4.3
2023-02-15T15:30:24.366Z,4.3
2023-02-15T15:32:30.813Z,4.2
2023-02-15T15:34:29.930Z,4.2
2023-02-15T15:36:24.171Z,4.1
2023-02-15T15:38:29.795Z,3.9
2023-02-15T15:42:26.884Z,3.9
2023-02-15T15:44:24.182Z,3.4
2023-02-15T15:46:24.371Z,3.1
2023-02-15T15:48:29.158Z,3.2
2023-02-15T15:50:26.357Z,3
2023-02-15T15:52:24.207Z,3
2023-02-15T15:54:25.473Z,2.8
2023-02-15T15:56:26.257Z,2.7
2023-02-15T15:58:24.209Z,2.8
2023-02-15T16:00:24.436Z,2.7
2023-02-15T16:02:25.466Z,2.4
2023-02-15T16:04:24.242Z,2.4
2023-02-15T16:06:24.181Z,2.2
2023-02-15T16:08:29.303Z,2.3
2023-02-15T16:10:24.232Z,2.1
2023-02-15T16:12:24.220Z,2.2
2023-02-15T16:14:27.819Z,2
2023-02-15T16:16:29.666Z,2
2023-02-15T16:18:28.134Z,2.1
2023-02-15T16:20:30.749Z,2.2
2023-02-15T16:22:24.080Z,1.9
2023-02-15T16:24:30.130Z,1.9
2023-02-15T16:26:24.198Z,1.8
2023-02-15T16:28:24.184Z,1.7
2023-02-15T16:30:30.388Z,1.5
2023-02-15T16:32:25.942Z,1.7
2023-02-15T16:34:25.946Z,1.5
2023-02-15T16:36:24.085Z,1.2
2023-02-15T16:38:25.035Z,1.5
2023-02-15T16:40:24.205Z,1.1
2023-02-15T16:42:25.447Z,1.5
2023-02-15T16:44:25.956Z,1.3
2023-02-15T16:46:25.970Z,1.2
2023-02-15T16:48:27.708Z,1.3
2023-02-15T16:50:27.658Z,1.3
2023-02-15T16:52:24.194Z,1
2023-02-15T16:56:26.754Z,1
2023-02-15T16:58:24.413Z,1
2023-02-15T17:02:43.373Z,0.9
2023-02-15T17:04:29.997Z,0.9
2023-02-15T17:06:24.291Z,0.7
2023-02-15T17:08:25.900Z,0.7
2023-02-15T17:10:29.037Z,0.8
2023-02-15T17:13:59.689Z,0.5
2023-02-15T17:16:03.941Z,0.3
2023-02-15T17:19:26.417Z,0.3
2023-02-15T17:21:31.404Z,0.3
2023-02-15T17:22:47.621Z,0.2
2023-02-15T17:24:47.158Z,0.2
2023-02-15T17:26:47.226Z,0.3
2023-02-15T17:28:47.275Z,0.2
2023-02-15T17:30:46.896Z,0
2023-02-15T17:32:47.525Z,0
2023-02-15T17:34:47.256Z,0
2023-02-15T17:36:45.980Z,0
2023-02-15T17:42:47.330Z,0
2023-02-15T17:46:46.930Z,0.1
2023-02-15T17:48:47.150Z,0.1
2023-02-15T17:50:47.603Z,-0.1
2023-02-15T17:52:46.783Z,0.1
2023-02-15T17:54:47.480Z,0.1
2023-02-15T17:56:47.278Z,-0.1
2023-02-15T17:58:46.384Z,-0.4
2023-02-15T18:00:47.548Z,0
2023-02-15T18:02:48.040Z,0.1
2023-02-15T18:04:47.648Z,-0.1
2023-02-15T18:08:47.203Z,-0.4
2023-02-15T18:10:47.364Z,-0.4
2023-02-15T18:12:47.080Z,-0.1
2023-02-15T18:14:46.727Z,-0.2
2023-02-15T18:16:46.558Z,-0.4
2023-02-15T18:18:47.204Z,-0.6
2023-02-15T18:20:47.537Z,-0.3
2023-02-15T18:22:46.024Z,-0.3
2023-02-15T18:26:47.222Z,-0.1
2023-02-15T18:30:47.714Z,-0.1
2023-02-15T18:32:46.665Z,-0.1
2023-02-15T18:34:47.271Z,-0.1
2023-02-15T18:36:47.358Z,0.1
2023-02-15T18:38:46.154Z,-0.1
2023-02-15T18:40:46.442Z,-0.1
2023-02-15T18:42:47.288Z,-0.1
2023-02-15T18:44:46.633Z,-0.1
2023-02-15T18:46:45.975Z,-0.5
2023-02-15T18:48:47.557Z,-0.4
2023-02-15T18:52:46.177Z,-0.2
2023-02-15T18:54:46.682Z,-0.2
2023-02-15T18:56:46.885Z,-0.1
2023-02-15T19:00:47.263Z,-0.3
2023-02-15T19:02:46.076Z,-0.4
2023-02-15T19:04:46.858Z,-0.5
2023-02-15T19:06:48.156Z,-0.8
2023-02-15T19:08:47.651Z,-0.7
2023-02-15T19:10:47.443Z,-0.6
2023-02-15T19:14:46.055Z,-0.6
2023-02-15T19:16:47.359Z,-0.9
2023-02-15T19:20:47.314Z,-0.5
2023-02-15T19:22:47.234Z,-0.5
2023-02-15T19:24:46.758Z,-0.4
2023-02-15T19:26:46.223Z,-0.4
2023-02-15T19:30:47.496Z,-0.6
2023-02-15T19:32:47.577Z,-0.8
2023-02-15T19:34:47.572Z,-0.9
2023-02-15T19:36:47.010Z,-0.6
2023-02-15T19:38:46.543Z,-0.9
2023-02-15T19:42:47.831Z,-0.8
2023-02-15T19:44:46.413Z,-0.8
2023-02-15T19:46:47.427Z,-0.7
2023-02-15T19:50:46.215Z,-0.8
2023-02-15T19:52:47.447Z,-0.6
2023-02-15T19:54:47.427Z,-0.7
2023-02-15T19:56:46.164Z,-0.7
2023-02-15T19:58:49.762Z,-0.7
2023-02-15T20:00:47.475Z,-0.9
2023-02-15T20:02:45.975Z,-0.9
2023-02-15T20:04:46.275Z,-0.8
2023-02-15T20:06:47.386Z,-0.9
2023-02-15T20:08:46.035Z,-0.8
2023-02-15T20:10:47.541Z,-0.9
2023-02-15T20:14:45.985Z,-0.9
2023-02-15T20:16:46.354Z,-0.9
2023-02-15T20:18:47.335Z,-0.9
2023-02-15T20:20:46.249Z,-0.9
2023-02-15T20:22:47.359Z,-0.9
2023-02-15T20:24:47.346Z,-1.1
2023-02-15T20:26:45.804Z,-1.2
2023-02-15T20:28:46.221Z,-1
2023-02-15T20:30:47.435Z,-1
2023-02-15T20:32:46.010Z,-0.9
2023-02-15T20:34:47.641Z,-1.1
2023-02-15T20:36:47.796Z,-0.9
2023-02-15T20:38:46.059Z,-1
2023-02-15T20:40:47.059Z,-1.1
2023-02-15T20:42:47.351Z,-1.1
2023-02-15T20:44:46.015Z,-1.1
2023-02-15T20:46:47.331Z,-1.3
2023-02-15T20:48:47.298Z,-1
2023-02-15T20:50:46.031Z,-0.9
2023-02-15T20:52:47.475Z,-1.1
2023-02-15T20:54:46.698Z,-1
2023-02-15T20:56:46.883Z,-0.8
2023-02-15T20:58:46.923Z,-0.7
2023-02-15T21:00:47.263Z,-0.8
2023-02-15T21:02:47.337Z,-0.8
2023-02-15T21:04:47.331Z,-0.9
2023-02-15T21:06:46.255Z,-0.8
2023-02-15T21:08:46.038Z,-0.8
2023-02-15T21:10:47.916Z,-1
2023-02-15T21:12:47.481Z,-0.9
2023-02-15T21:14:46.058Z,-1.1
2023-02-15T21:16:47.306Z,-1.1
2023-02-15T21:18:47.757Z,-0.9
2023-02-15T21:20:46.055Z,-0.9
2023-02-15T21:22:47.402Z,-0.9
2023-02-15T21:24:47.461Z,-1.1
2023-02-15T21:26:46.025Z,-0.9
2023-02-15T21:28:47.628Z,-1
2023-02-15T21:30:47.352Z,-1.1
2023-02-15T21:32:46.051Z,-0.9
2023-02-15T21:34:46.298Z,-0.9
2023-02-15T21:36:47.459Z,-0.9
2023-02-15T21:38:46.051Z,-1
2023-02-15T21:42:47.375Z,-1
2023-02-15T21:44:46.072Z,-1.1
2023-02-15T21:46:47.470Z,-1.1
2023-02-15T21:50:46.060Z,-1
2023-02-15T21:54:47.215Z,-1.2
2023-02-15T21:56:47.419Z,-1.4
2023-02-15T22:02:46.101Z,-1.4
2023-02-15T22:04:47.315Z,-1.3
2023-02-15T22:06:47.392Z,-1.2
2023-02-15T22:08:46.049Z,-1.5
2023-02-15T22:10:47.318Z,-1.6
2023-02-15T22:12:46.045Z,-1.2
2023-02-15T22:14:46.061Z,-1.7
2023-02-15T22:16:47.343Z,-1.7
2023-02-15T22:18:46.315Z,-1.8
2023-02-15T22:20:47.373Z,-1.2
2023-02-15T22:24:47.495Z,-1.4
2023-02-15T22:26:46.139Z,-1.5
2023-02-15T22:28:47.457Z,-1.4
2023-02-15T22:30:47.668Z,-1.6
2023-02-15T22:32:47.440Z,-1.5
2023-02-15T22:34:47.584Z,-1.4
2023-02-15T22:36:46.717Z,-1.3
2023-02-15T22:38:46.061Z,-1.3
2023-02-15T22:40:47.268Z,-1.3
2023-02-15T22:42:47.346Z,-1.4
2023-02-15T22:44:47.590Z,-1.7
2023-02-15T22:46:47.509Z,-1.4
2023-02-15T22:48:47.535Z,-1.4
2023-02-15T22:50:47.373Z,-1.3
2023-02-15T22:52:47.727Z,-1.4
2023-02-15T22:54:46.372Z,-1.4
2023-02-15T22:56:46.640Z,-1.4
2023-02-15T22:58:47.847Z,-1.4
2023-02-15T23:00:49.129Z,-1.4
2023-02-15T23:02:46.613Z,-1.4
2023-02-15T23:04:46.366Z,-1.4
2023-02-15T23:06:47.453Z,-1.4
2023-02-15T23:08:46.513Z,-1.5
2023-02-15T23:10:47.978Z,-1.4
2023-02-15T23:14:46.384Z,-1.5
2023-02-15T23:16:48.361Z,-1.4
2023-02-15T23:18:46.134Z,-1.4
2023-02-15T23:20:47.028Z,-1.4
2023-02-15T23:22:47.430Z,-1.6
2023-02-15T23:24:46.615Z,-1.6
2023-02-15T23:26:46.362Z,-1.7
2023-02-15T23:28:48.073Z,-1.5
2023-02-15T23:30:47.045Z,-1.4
2023-02-15T23:32:47.422Z,-1.4
2023-02-15T23:36:46.136Z,-1.6
2023-02-15T23:40:47.726Z,-1.6
2023-02-15T23:42:46.100Z,-1.7
2023-02-15T23:48:47.784Z,-1.6
2023-02-15T23:50:47.823Z,-1.6
2023-02-15T23:52:46.703Z,-1.5
2023-02-15T23:54:47.716Z,-1.6
2023-02-15T23:56:46.125Z,-1.6
2023-02-15T23:58:47.322Z,-1.7
